sensor_id;sensor_type;location;lat;lon;timestamp;P1;durP1;ratioP1;P2;durP2;ratioP2
31378;SDS011;61664;48.112;11.662;2023-04-02T00:00:27;0.22;;;0.13;;
31378;SDS011;61664;48.112;11.662;2023-04-02T00:05:30;0.20;;;0.20;;
31378;SDS011;61664;48.112;11.662;2023-04-02T00:08:29;0.22;;;0.15;;
31378;SDS011;61664;48.112;11.662;2023-04-02T00:11:06;0.17;;;0.10;;
31378;SDS011;61664;48.112;11.662;2023-04-02T00:13:42;0.10;;;0.10;;
31378;SDS011;61664;48.112;11.662;2023-04-02T00:16:16;0.30;;;0.20;;
31378;SDS011;61664;48.112;11.662;2023-04-02T00:18:51;0.47;;;0.22;;
31378;SDS011;61664;48.112;11.662;2023-04-02T00:21:25;0.10;;;0.10;;
31378;SDS011;61664;48.112;11.662;2023-04-02T00:24:00;0.30;;;0.20;;
31378;SDS011;61664;48.112;11.662;2023-04-02T00:26:42;0.10;;;0.10;;
31378;SDS011;61664;48.112;11.662;2023-04-02T00:29:13;0.50;;;0.40;;
31378;SDS011;61664;48.112;11.662;2023-04-02T00:31:42;0.30;;;0.20;;
31378;SDS011;61664;48.112;11.662;2023-04-02T00:34:31;0.20;;;0.20;;
31378;SDS011;61664;48.112;11.662;2023-04-02T00:37:03;0.17;;;0.17;;
31378;SDS011;61664;48.112;11.662;2023-04-02T00:39:33;0.40;;;0.13;;
31378;SDS011;61664;48.112;11.662;2023-04-02T00:42:08;0.10;;;0.10;;
31378;SDS011;61664;48.112;11.662;2023-04-02T00:44:38;1.20;;;0.20;;
31378;SDS011;61664;48.112;11.662;2023-04-02T00:47:19;0.88;;;0.20;;
31378;SDS011;61664;48.112;11.662;2023-04-02T00:50:35;0.10;;;0.10;;
31378;SDS011;61664;48.112;11.662;2023-04-02T00:52:55;0.30;;;0.20;;
31378;SDS011;61664;48.112;11.662;2023-04-02T00:55:35;0.20;;;0.20;;
31378;SDS011;61664;48.112;11.662;2023-04-02T00:58:26;0.10;;;0.10;;
31378;SDS011;61664;48.112;11.662;2023-04-02T01:01:01;0.10;;;0.10;;
31378;SDS011;61664;48.112;11.662;2023-04-02T01:23:15;0.10;;;0.10;;
31378;SDS011;61664;48.112;11.662;2023-04-02T01:25:59;0.30;;;0.30;;
31378;SDS011;61664;48.112;11.662;2023-04-02T01:31:17;0.10;;;0.10;;
31378;SDS011;61664;48.112;11.662;2023-04-02T01:33:44;0.43;;;0.30;;
31378;SDS011;61664;48.112;11.662;2023-04-02T01:36:17;0.10;;;0.10;;
31378;SDS011;61664;48.112;11.662;2023-04-02T01:41:42;0.45;;;0.10;;
31378;SDS011;61664;48.112;11.662;2023-04-02T01:44:41;0.50;;;0.47;;
31378;SDS011;61664;48.112;11.662;2023-04-02T01:47:14;0.30;;;0.10;;
31378;SDS011;61664;48.112;11.662;2023-04-02T01:49:52;0.50;;;0.20;;
31378;SDS011;61664;48.112;11.662;2023-04-02T01:52:37;0.20;;;0.17;;
31378;SDS011;61664;48.112;11.662;2023-04-02T01:55:08;0.25;;;0.20;;
31378;SDS011;61664;48.112;11.662;2023-04-02T01:57:45;0.20;;;0.20;;
31378;SDS011;61664;48.112;11.662;2023-04-02T02:00:16;0.65;;;0.20;;
31378;SDS011;61664;48.112;11.662;2023-04-02T02:02:48;0.30;;;0.20;;
31378;SDS011;61664;48.112;11.662;2023-04-02T02:05:18;0.40;;;0.20;;
31378;SDS011;61664;48.112;11.662;2023-04-02T02:07:48;0.30;;;0.10;;
31378;SDS011;61664;48.112;11.662;2023-04-02T02:10:22;2.53;;;0.30;;
31378;SDS011;61664;48.112;11.662;2023-04-02T02:13:00;0.20;;;0.20;;
31378;SDS011;61664;48.112;11.662;2023-04-02T02:15:30;0.20;;;0.20;;
31378;SDS011;61664;48.112;11.662;2023-04-02T02:18:01;0.17;;;0.17;;
31378;SDS011;61664;48.112;11.662;2023-04-02T02:20:31;0.47;;;0.10;;
31378;SDS011;61664;48.112;11.662;2023-04-02T02:23:00;0.20;;;0.20;;
31378;SDS011;61664;48.112;11.662;2023-04-02T02:25:30;1.67;;;0.20;;
31378;SDS011;61664;48.112;11.662;2023-04-02T02:28:07;0.10;;;0.10;;
31378;SDS011;61664;48.112;11.662;2023-04-02T02:33:19;0.73;;;0.20;;
31378;SDS011;61664;48.112;11.662;2023-04-02T02:35:57;0.10;;;0.10;;
31378;SDS011;61664;48.112;11.662;2023-04-02T02:41:01;0.43;;;0.20;;
31378;SDS011;61664;48.112;11.662;2023-04-02T02:43:38;0.28;;;0.20;;
31378;SDS011;61664;48.112;11.662;2023-04-02T02:46:15;0.20;;;0.17;;
31378;SDS011;61664;48.112;11.662;2023-04-02T02:48:55;0.10;;;0.10;;
31378;SDS011;61664;48.112;11.662;2023-04-02T02:51:28;0.38;;;0.30;;
31378;SDS011;61664;48.112;11.662;2023-04-02T02:58:04;0.10;;;0.10;;
31378;SDS011;61664;48.112;11.662;2023-04-02T03:00:41;1.40;;;0.30;;
31378;SDS011;61664;48.112;11.662;2023-04-02T03:03:22;0.30;;;0.20;;
31378;SDS011;61664;48.112;11.662;2023-04-02T03:06:00;0.10;;;0.10;;
31378;SDS011;61664;48.112;11.662;2023-04-02T03:08:33;0.28;;;0.22;;
31378;SDS011;61664;48.112;11.662;2023-04-02T03:11:08;0.10;;;0.10;;
31378;SDS011;61664;48.112;11.662;2023-04-02T03:14:01;0.38;;;0.20;;
31378;SDS011;61664;48.112;11.662;2023-04-02T03:16:49;0.20;;;0.13;;
31378;SDS011;61664;48.112;11.662;2023-04-02T03:20:09;0.10;;;0.10;;
31378;SDS011;61664;48.112;11.662;2023-04-02T03:22:35;0.20;;;0.10;;
31378;SDS011;61664;48.112;11.662;2023-04-02T03:25:37;0.10;;;0.10;;
31378;SDS011;61664;48.112;11.662;2023-04-02T03:28:18;0.10;;;0.10;;
31378;SDS011;61664;48.112;11.662;2023-04-02T03:30:56;0.28;;;0.20;;
31378;SDS011;61664;48.112;11.662;2023-04-02T03:33:36;0.25;;;0.20;;
31378;SDS011;61664;48.112;11.662;2023-04-02T03:36:23;0.93;;;0.25;;
31378;SDS011;61664;48.112;11.662;2023-04-02T03:39:32;0.10;;;0.10;;
31378;SDS011;61664;48.112;11.662;2023-04-02T03:42:09;0.10;;;0.10;;
31378;SDS011;61664;48.112;11.662;2023-04-02T03:44:57;0.13;;;0.13;;
31378;SDS011;61664;48.112;11.662;2023-04-02T03:53:02;0.35;;;0.20;;
31378;SDS011;61664;48.112;11.662;2023-04-02T03:55:36;0.10;;;0.10;;
31378;SDS011;61664;48.112;11.662;2023-04-02T03:58:08;0.22;;;0.10;;
31378;SDS011;61664;48.112;11.662;2023-04-02T04:00:41;0.65;;;0.20;;
31378;SDS011;61664;48.112;11.662;2023-04-02T04:03:41;0.57;;;0.40;;
31378;SDS011;61664;48.112;11.662;2023-04-02T04:06:27;0.55;;;0.20;;
31378;SDS011;61664;48.112;11.662;2023-04-02T04:09:06;0.40;;;0.20;;
31378;SDS011;61664;48.112;11.662;2023-04-02T04:15:02;0.10;;;0.10;;
31378;SDS011;61664;48.112;11.662;2023-04-02T04:17:36;0.22;;;0.20;;
31378;SDS011;61664;48.112;11.662;2023-04-02T04:20:18;0.57;;;0.20;;
31378;SDS011;61664;48.112;11.662;2023-04-02T04:22:51;0.25;;;0.25;;
31378;SDS011;61664;48.112;11.662;2023-04-02T04:25:24;0.22;;;0.20;;
31378;SDS011;61664;48.112;11.662;2023-04-02T04:28:10;0.15;;;0.10;;
31378;SDS011;61664;48.112;11.662;2023-04-02T04:31:50;0.28;;;0.20;;
31378;SDS011;61664;48.112;11.662;2023-04-02T04:34:25;0.35;;;0.32;;
31378;SDS011;61664;48.112;11.662;2023-04-02T04:37:04;0.30;;;0.20;;
31378;SDS011;61664;48.112;11.662;2023-04-02T04:39:38;0.17;;;0.17;;
31378;SDS011;61664;48.112;11.662;2023-04-02T04:42:26;1.15;;;0.15;;
31378;SDS011;61664;48.112;11.662;2023-04-02T04:44:59;0.20;;;0.20;;
31378;SDS011;61664;48.112;11.662;2023-04-02T04:47:31;0.45;;;0.10;;
31378;SDS011;61664;48.112;11.662;2023-04-02T04:50:13;0.35;;;0.20;;
31378;SDS011;61664;48.112;11.662;2023-04-02T04:52:50;0.20;;;0.10;;
31378;SDS011;61664;48.112;11.662;2023-04-02T04:58:07;0.50;;;0.50;;
31378;SDS011;61664;48.112;11.662;2023-04-02T05:09:40;0.10;;;0.10;;
31378;SDS011;61664;48.112;11.662;2023-04-02T05:12:36;0.10;;;0.10;;
31378;SDS011;61664;48.112;11.662;2023-04-02T05:15:17;0.57;;;0.20;;
31378;SDS011;61664;48.112;11.662;2023-04-02T05:24:05;0.52;;;0.20;;
31378;SDS011;61664;48.112;11.662;2023-04-02T05:27:01;0.10;;;0.10;;
31378;SDS011;61664;48.112;11.662;2023-04-02T05:30:04;0.10;;;0.10;;
31378;SDS011;61664;48.112;11.662;2023-04-02T05:32:57;0.20;;;0.15;;
31378;SDS011;61664;48.112;11.662;2023-04-02T05:35:41;0.10;;;0.10;;
31378;SDS011;61664;48.112;11.662;2023-04-02T05:38:19;0.22;;;0.10;;
31378;SDS011;61664;48.112;11.662;2023-04-02T05:40:53;0.38;;;0.17;;
31378;SDS011;61664;48.112;11.662;2023-04-02T05:43:32;0.22;;;0.20;;
31378;SDS011;61664;48.112;11.662;2023-04-02T05:48:41;0.22;;;0.10;;
31378;SDS011;61664;48.112;11.662;2023-04-02T05:51:13;0.32;;;0.30;;
31378;SDS011;61664;48.112;11.662;2023-04-02T05:53:51;0.57;;;0.22;;
31378;SDS011;61664;48.112;11.662;2023-04-02T06:01:48;0.30;;;0.30;;
31378;SDS011;61664;48.112;11.662;2023-04-02T06:10:32;0.30;;;0.30;;
31378;SDS011;61664;48.112;11.662;2023-04-02T06:13:08;0.57;;;0.57;;
31378;SDS011;61664;48.112;11.662;2023-04-02T06:15:42;0.75;;;0.40;;
31378;SDS011;61664;48.112;11.662;2023-04-02T06:18:14;0.50;;;0.30;;
31378;SDS011;61664;48.112;11.662;2023-04-02T06:20:51;0.77;;;0.30;;
31378;SDS011;61664;48.112;11.662;2023-04-02T06:25:59;0.40;;;0.30;;
31378;SDS011;61664;48.112;11.662;2023-04-02T06:28:40;0.30;;;0.30;;
31378;SDS011;61664;48.112;11.662;2023-04-02T06:31:21;0.17;;;0.17;;
31378;SDS011;61664;48.112;11.662;2023-04-02T06:33:54;1.10;;;0.20;;
31378;SDS011;61664;48.112;11.662;2023-04-02T06:36:22;0.47;;;0.47;;
31378;SDS011;61664;48.112;11.662;2023-04-02T06:38:53;0.75;;;0.50;;
31378;SDS011;61664;48.112;11.662;2023-04-02T06:41:28;0.30;;;0.30;;
31378;SDS011;61664;48.112;11.662;2023-04-02T06:44:03;0.30;;;0.30;;
31378;SDS011;61664;48.112;11.662;2023-04-02T06:46:44;0.57;;;0.30;;
31378;SDS011;61664;48.112;11.662;2023-04-02T06:52:11;1.75;;;0.40;;
31378;SDS011;61664;48.112;11.662;2023-04-02T06:58:13;0.52;;;0.50;;
31378;SDS011;61664;48.112;11.662;2023-04-02T07:00:46;1.83;;;0.50;;
31378;SDS011;61664;48.112;11.662;2023-04-02T07:03:26;1.00;;;0.43;;
31378;SDS011;61664;48.112;11.662;2023-04-02T07:05:56;0.70;;;0.35;;
31378;SDS011;61664;48.112;11.662;2023-04-02T07:08:27;1.20;;;0.55;;
31378;SDS011;61664;48.112;11.662;2023-04-02T07:10:54;0.30;;;0.30;;
31378;SDS011;61664;48.112;11.662;2023-04-02T07:13:22;0.28;;;0.25;;
31378;SDS011;61664;48.112;11.662;2023-04-02T07:15:50;1.38;;;0.30;;
31378;SDS011;61664;48.112;11.662;2023-04-02T07:20:49;0.35;;;0.35;;
31378;SDS011;61664;48.112;11.662;2023-04-02T07:23:17;0.40;;;0.20;;
31378;SDS011;61664;48.112;11.662;2023-04-02T07:25:49;0.25;;;0.25;;
31378;SDS011;61664;48.112;11.662;2023-04-02T07:28:19;0.28;;;0.22;;
31378;SDS011;61664;48.112;11.662;2023-04-02T07:30:48;0.40;;;0.30;;
31378;SDS011;61664;48.112;11.662;2023-04-02T07:33:17;0.40;;;0.40;;
31378;SDS011;61664;48.112;11.662;2023-04-02T07:35:48;0.47;;;0.25;;
31378;SDS011;61664;48.112;11.662;2023-04-02T07:38:16;2.38;;;0.30;;
31378;SDS011;61664;48.112;11.662;2023-04-02T07:40:43;0.30;;;0.20;;
31378;SDS011;61664;48.112;11.662;2023-04-02T07:43:10;0.85;;;0.20;;
31378;SDS011;61664;48.112;11.662;2023-04-02T07:45:37;0.57;;;0.30;;
31378;SDS011;61664;48.112;11.662;2023-04-02T07:48:09;0.50;;;0.30;;
31378;SDS011;61664;48.112;11.662;2023-04-02T07:50:38;1.50;;;0.30;;
31378;SDS011;61664;48.112;11.662;2023-04-02T07:53:05;0.35;;;0.20;;
31378;SDS011;61664;48.112;11.662;2023-04-02T07:55:33;1.90;;;1.25;;
31378;SDS011;61664;48.112;11.662;2023-04-02T07:58:01;0.88;;;0.50;;
31378;SDS011;61664;48.112;11.662;2023-04-02T08:00:29;0.32;;;0.30;;
31378;SDS011;61664;48.112;11.662;2023-04-02T08:02:56;1.13;;;0.40;;
31378;SDS011;61664;48.112;11.662;2023-04-02T08:05:23;1.50;;;0.50;;
31378;SDS011;61664;48.112;11.662;2023-04-02T08:07:53;0.40;;;0.40;;
31378;SDS011;61664;48.112;11.662;2023-04-02T08:10:22;0.60;;;0.28;;
31378;SDS011;61664;48.112;11.662;2023-04-02T08:12:50;1.02;;;0.28;;
31378;SDS011;61664;48.112;11.662;2023-04-02T08:15:17;0.57;;;0.20;;
31378;SDS011;61664;48.112;11.662;2023-04-02T08:17:44;0.40;;;0.40;;
31378;SDS011;61664;48.112;11.662;2023-04-02T08:20:17;0.32;;;0.20;;
31378;SDS011;61664;48.112;11.662;2023-04-02T08:22:46;0.47;;;0.30;;
31378;SDS011;61664;48.112;11.662;2023-04-02T08:25:14;1.05;;;0.30;;
31378;SDS011;61664;48.112;11.662;2023-04-02T08:27:42;0.40;;;0.35;;
31378;SDS011;61664;48.112;11.662;2023-04-02T08:30:12;0.60;;;0.45;;
31378;SDS011;61664;48.112;11.662;2023-04-02T08:32:39;1.08;;;0.55;;
31378;SDS011;61664;48.112;11.662;2023-04-02T08:35:07;0.70;;;0.40;;
31378;SDS011;61664;48.112;11.662;2023-04-02T08:37:36;0.95;;;0.30;;
31378;SDS011;61664;48.112;11.662;2023-04-02T08:40:03;1.75;;;0.40;;
31378;SDS011;61664;48.112;11.662;2023-04-02T08:49:11;0.22;;;0.20;;
31378;SDS011;61664;48.112;11.662;2023-04-02T08:51:44;0.30;;;0.20;;
31378;SDS011;61664;48.112;11.662;2023-04-02T08:54:26;1.02;;;0.32;;
31378;SDS011;61664;48.112;11.662;2023-04-02T08:57:05;1.05;;;0.30;;
31378;SDS011;61664;48.112;11.662;2023-04-02T08:59:57;0.30;;;0.30;;
31378;SDS011;61664;48.112;11.662;2023-04-02T09:02:39;0.38;;;0.20;;
31378;SDS011;61664;48.112;11.662;2023-04-02T09:05:16;1.27;;;0.25;;
31378;SDS011;61664;48.112;11.662;2023-04-02T09:07:51;1.48;;;0.55;;
31378;SDS011;61664;48.112;11.662;2023-04-02T09:10:24;0.50;;;0.50;;
31378;SDS011;61664;48.112;11.662;2023-04-02T09:13:06;1.45;;;0.40;;
31378;SDS011;61664;48.112;11.662;2023-04-02T09:15:50;0.75;;;0.30;;
31378;SDS011;61664;48.112;11.662;2023-04-02T09:18:29;0.30;;;0.20;;
31378;SDS011;61664;48.112;11.662;2023-04-02T09:20:59;0.38;;;0.30;;
31378;SDS011;61664;48.112;11.662;2023-04-02T09:23:47;0.20;;;0.20;;
31378;SDS011;61664;48.112;11.662;2023-04-02T09:26:19;0.57;;;0.38;;
31378;SDS011;61664;48.112;11.662;2023-04-02T09:34:30;0.90;;;0.60;;
31378;SDS011;61664;48.112;11.662;2023-04-02T09:37:05;1.45;;;1.23;;
31378;SDS011;61664;48.112;11.662;2023-04-02T09:39:39;0.68;;;0.60;;
31378;SDS011;61664;48.112;11.662;2023-04-02T09:42:06;2.35;;;0.68;;
31378;SDS011;61664;48.112;11.662;2023-04-02T09:47:50;0.50;;;0.22;;
31378;SDS011;61664;48.112;11.662;2023-04-02T09:52:48;0.10;;;0.10;;
31378;SDS011;61664;48.112;11.662;2023-04-02T09:55:21;0.28;;;0.20;;
31378;SDS011;61664;48.112;11.662;2023-04-02T09:58:05;0.10;;;0.10;;
31378;SDS011;61664;48.112;11.662;2023-04-02T10:00:38;0.40;;;0.20;;
31378;SDS011;61664;48.112;11.662;2023-04-02T10:03:25;0.57;;;0.50;;
31378;SDS011;61664;48.112;11.662;2023-04-02T10:06:03;0.65;;;0.20;;
31378;SDS011;61664;48.112;11.662;2023-04-02T10:08:40;0.38;;;0.30;;
31378;SDS011;61664;48.112;11.662;2023-04-02T10:11:14;0.15;;;0.10;;
31378;SDS011;61664;48.112;11.662;2023-04-02T10:13:57;1.00;;;0.20;;
31378;SDS011;61664;48.112;11.662;2023-04-02T10:16:31;0.73;;;0.30;;
31378;SDS011;61664;48.112;11.662;2023-04-02T10:19:11;0.90;;;0.20;;
31378;SDS011;61664;48.112;11.662;2023-04-02T10:22:15;0.40;;;0.30;;
31378;SDS011;61664;48.112;11.662;2023-04-02T10:24:45;0.40;;;0.30;;
31378;SDS011;61664;48.112;11.662;2023-04-02T10:30:17;0.32;;;0.20;;
31378;SDS011;61664;48.112;11.662;2023-04-02T10:33:13;0.20;;;0.20;;
31378;SDS011;61664;48.112;11.662;2023-04-02T10:41:30;1.05;;;0.32;;
31378;SDS011;61664;48.112;11.662;2023-04-02T10:44:25;0.32;;;0.20;;
31378;SDS011;61664;48.112;11.662;2023-04-02T10:49:27;0.63;;;0.35;;
31378;SDS011;61664;48.112;11.662;2023-04-02T10:55:01;0.35;;;0.35;;
31378;SDS011;61664;48.112;11.662;2023-04-02T10:57:50;0.60;;;0.40;;
31378;SDS011;61664;48.112;11.662;2023-04-02T11:00:27;0.20;;;0.20;;
31378;SDS011;61664;48.112;11.662;2023-04-02T11:05:59;0.40;;;0.40;;
31378;SDS011;61664;48.112;11.662;2023-04-02T11:11:16;0.30;;;0.20;;
31378;SDS011;61664;48.112;11.662;2023-04-02T11:16:28;0.40;;;0.30;;
31378;SDS011;61664;48.112;11.662;2023-04-02T11:24:30;0.30;;;0.30;;
31378;SDS011;61664;48.112;11.662;2023-04-02T11:29:46;1.13;;;1.02;;
31378;SDS011;61664;48.112;11.662;2023-04-02T11:32:26;5.15;;;2.80;;
31378;SDS011;61664;48.112;11.662;2023-04-02T11:34:57;9.35;;;4.05;;
31378;SDS011;61664;48.112;11.662;2023-04-02T11:37:34;2.65;;;1.73;;
31378;SDS011;61664;48.112;11.662;2023-04-02T11:45:59;1.77;;;1.65;;
31378;SDS011;61664;48.112;11.662;2023-04-02T11:48:42;1.98;;;1.83;;
31378;SDS011;61664;48.112;11.662;2023-04-02T11:53:49;1.25;;;1.15;;
31378;SDS011;61664;48.112;11.662;2023-04-02T11:56:30;0.40;;;0.40;;
31378;SDS011;61664;48.112;11.662;2023-04-02T12:05:20;1.40;;;1.30;;
31378;SDS011;61664;48.112;11.662;2023-04-02T12:10:48;0.38;;;0.38;;
31378;SDS011;61664;48.112;11.662;2023-04-02T12:13:19;0.30;;;0.30;;
31378;SDS011;61664;48.112;11.662;2023-04-02T12:16:06;0.30;;;0.30;;
31378;SDS011;61664;48.112;11.662;2023-04-02T12:18:45;0.40;;;0.40;;
31378;SDS011;61664;48.112;11.662;2023-04-02T12:21:20;0.20;;;0.20;;
31378;SDS011;61664;48.112;11.662;2023-04-02T12:23:54;0.25;;;0.20;;
31378;SDS011;61664;48.112;11.662;2023-04-02T12:29:23;0.20;;;0.20;;
31378;SDS011;61664;48.112;11.662;2023-04-02T12:31:57;0.70;;;0.50;;
31378;SDS011;61664;48.112;11.662;2023-04-02T12:34:26;0.80;;;0.45;;
31378;SDS011;61664;48.112;11.662;2023-04-02T12:36:59;0.60;;;0.30;;
31378;SDS011;61664;48.112;11.662;2023-04-02T12:39:29;0.20;;;0.20;;
31378;SDS011;61664;48.112;11.662;2023-04-02T12:41:58;0.40;;;0.40;;
31378;SDS011;61664;48.112;11.662;2023-04-02T12:44:26;0.30;;;0.10;;
31378;SDS011;61664;48.112;11.662;2023-04-02T12:46:55;0.30;;;0.30;;
31378;SDS011;61664;48.112;11.662;2023-04-02T12:49:37;0.40;;;0.30;;
31378;SDS011;61664;48.112;11.662;2023-04-02T12:52:19;0.40;;;0.40;;
31378;SDS011;61664;48.112;11.662;2023-04-02T12:54:59;0.25;;;0.25;;
31378;SDS011;61664;48.112;11.662;2023-04-02T13:02:57;0.28;;;0.20;;
31378;SDS011;61664;48.112;11.662;2023-04-02T13:05:53;0.22;;;0.22;;
31378;SDS011;61664;48.112;11.662;2023-04-02T13:08:24;0.30;;;0.30;;
31378;SDS011;61664;48.112;11.662;2023-04-02T13:11:00;0.45;;;0.30;;
31378;SDS011;61664;48.112;11.662;2023-04-02T13:13:33;0.30;;;0.30;;
31378;SDS011;61664;48.112;11.662;2023-04-02T13:16:21;0.22;;;0.22;;
31378;SDS011;61664;48.112;11.662;2023-04-02T13:19:07;1.40;;;0.23;;
31378;SDS011;61664;48.112;11.662;2023-04-02T13:21:49;0.57;;;0.40;;
31378;SDS011;61664;48.112;11.662;2023-04-02T13:24:19;0.20;;;0.20;;
31378;SDS011;61664;48.112;11.662;2023-04-02T13:26:49;0.20;;;0.20;;
31378;SDS011;61664;48.112;11.662;2023-04-02T13:29:24;0.25;;;0.25;;
31378;SDS011;61664;48.112;11.662;2023-04-02T13:31:54;0.52;;;0.30;;
31378;SDS011;61664;48.112;11.662;2023-04-02T13:34:26;1.10;;;0.30;;
31378;SDS011;61664;48.112;11.662;2023-04-02T13:36:54;0.20;;;0.20;;
31378;SDS011;61664;48.112;11.662;2023-04-02T13:39:22;0.40;;;0.30;;
31378;SDS011;61664;48.112;11.662;2023-04-02T13:41:57;0.40;;;0.40;;
31378;SDS011;61664;48.112;11.662;2023-04-02T13:44:28;0.30;;;0.30;;
31378;SDS011;61664;48.112;11.662;2023-04-02T13:46:57;1.10;;;0.30;;
31378;SDS011;61664;48.112;11.662;2023-04-02T13:49:25;0.20;;;0.20;;
31378;SDS011;61664;48.112;11.662;2023-04-02T13:51:53;0.32;;;0.32;;
31378;SDS011;61664;48.112;11.662;2023-04-02T13:54:26;1.30;;;0.40;;
31378;SDS011;61664;48.112;11.662;2023-04-02T13:57:14;0.40;;;0.40;;
31378;SDS011;61664;48.112;11.662;2023-04-02T13:59:41;0.55;;;0.43;;
31378;SDS011;61664;48.112;11.662;2023-04-02T14:02:11;1.10;;;0.60;;
31378;SDS011;61664;48.112;11.662;2023-04-02T14:04:45;0.90;;;0.40;;
31378;SDS011;61664;48.112;11.662;2023-04-02T14:34:30;0.50;;;0.50;;
31378;SDS011;61664;48.112;11.662;2023-04-02T14:42:52;0.20;;;0.20;;
31378;SDS011;61664;48.112;11.662;2023-04-02T14:53:57;0.10;;;0.10;;
31378;SDS011;61664;48.112;11.662;2023-04-02T15:03:15;0.20;;;0.20;;
31378;SDS011;61664;48.112;11.662;2023-04-02T15:05:59;0.30;;;0.30;;
31378;SDS011;61664;48.112;11.662;2023-04-02T15:11:38;0.40;;;0.30;;
31378;SDS011;61664;48.112;11.662;2023-04-02T15:14:17;0.40;;;0.30;;
31378;SDS011;61664;48.112;11.662;2023-04-02T15:17:09;0.40;;;0.20;;
31378;SDS011;61664;48.112;11.662;2023-04-02T15:19:37;0.20;;;0.20;;
31378;SDS011;61664;48.112;11.662;2023-04-02T15:25:32;0.30;;;0.30;;
31378;SDS011;61664;48.112;11.662;2023-04-02T15:28:25;0.30;;;0.30;;
31378;SDS011;61664;48.112;11.662;2023-04-02T15:53:39;0.40;;;0.40;;
31378;SDS011;61664;48.112;11.662;2023-04-02T16:05:01;0.82;;;0.63;;
31378;SDS011;61664;48.112;11.662;2023-04-02T16:08:06;0.80;;;0.60;;
31378;SDS011;61664;48.112;11.662;2023-04-02T16:10:46;0.57;;;0.57;;
31378;SDS011;61664;48.112;11.662;2023-04-02T16:13:17;0.88;;;0.70;;
31378;SDS011;61664;48.112;11.662;2023-04-02T16:16:14;0.70;;;0.70;;
31378;SDS011;61664;48.112;11.662;2023-04-02T16:24:47;1.00;;;1.00;;
31378;SDS011;61664;48.112;11.662;2023-04-02T16:27:31;1.13;;;1.03;;
31378;SDS011;61664;48.112;11.662;2023-04-02T16:38:47;1.17;;;1.17;;
31378;SDS011;61664;48.112;11.662;2023-04-02T16:42:07;1.40;;;1.30;;
31378;SDS011;61664;48.112;11.662;2023-04-02T16:53:30;2.95;;;1.58;;
31378;SDS011;61664;48.112;11.662;2023-04-02T16:59:40;1.60;;;1.50;;
31378;SDS011;61664;48.112;11.662;2023-04-02T17:11:47;1.65;;;1.55;;
31378;SDS011;61664;48.112;11.662;2023-04-02T17:14:36;1.95;;;1.85;;
31378;SDS011;61664;48.112;11.662;2023-04-02T17:17:15;1.70;;;1.60;;
31378;SDS011;61664;48.112;11.662;2023-04-02T17:19:42;2.20;;;2.10;;
31378;SDS011;61664;48.112;11.662;2023-04-02T17:22:12;1.70;;;1.60;;
31378;SDS011;61664;48.112;11.662;2023-04-02T17:24:57;1.73;;;1.63;;
31378;SDS011;61664;48.112;11.662;2023-04-02T17:27:42;2.40;;;2.30;;
31378;SDS011;61664;48.112;11.662;2023-04-02T17:30:18;2.03;;;1.92;;
31378;SDS011;61664;48.112;11.662;2023-04-02T17:33:03;1.42;;;1.33;;
31378;SDS011;61664;48.112;11.662;2023-04-02T17:41:29;1.45;;;1.40;;
31378;SDS011;61664;48.112;11.662;2023-04-02T17:44:00;1.67;;;1.58;;
31378;SDS011;61664;48.112;11.662;2023-04-02T17:52:47;1.70;;;1.60;;
31378;SDS011;61664;48.112;11.662;2023-04-02T18:04:17;2.53;;;2.42;;
31378;SDS011;61664;48.112;11.662;2023-04-02T18:09:37;2.90;;;2.80;;
31378;SDS011;61664;48.112;11.662;2023-04-02T18:27:01;4.05;;;3.83;;
31378;SDS011;61664;48.112;11.662;2023-04-02T18:30:21;3.95;;;3.72;;
31378;SDS011;61664;48.112;11.662;2023-04-02T18:39:01;4.00;;;3.80;;
31378;SDS011;61664;48.112;11.662;2023-04-02T18:41:48;3.85;;;3.55;;
31378;SDS011;61664;48.112;11.662;2023-04-02T18:44:48;3.88;;;3.67;;
31378;SDS011;61664;48.112;11.662;2023-04-02T18:48:13;2.92;;;2.83;;
31378;SDS011;61664;48.112;11.662;2023-04-02T18:51:12;3.88;;;3.63;;
31378;SDS011;61664;48.112;11.662;2023-04-02T18:53:50;3.60;;;3.40;;
31378;SDS011;61664;48.112;11.662;2023-04-02T18:56:29;4.82;;;4.53;;
31378;SDS011;61664;48.112;11.662;2023-04-02T19:02:21;4.97;;;4.57;;
31378;SDS011;61664;48.112;11.662;2023-04-02T19:10:53;5.55;;;5.05;;
31378;SDS011;61664;48.112;11.662;2023-04-02T19:13:27;6.30;;;5.80;;
31378;SDS011;61664;48.112;11.662;2023-04-02T19:27:13;7.20;;;6.47;;
31378;SDS011;61664;48.112;11.662;2023-04-02T19:33:26;10.15;;;7.93;;
31378;SDS011;61664;48.112;11.662;2023-04-02T19:41:52;6.03;;;5.53;;
31378;SDS011;61664;48.112;11.662;2023-04-02T19:44:26;7.82;;;7.07;;
31378;SDS011;61664;48.112;11.662;2023-04-02T19:46:53;7.90;;;7.25;;
31378;SDS011;61664;48.112;11.662;2023-04-02T19:49:27;7.53;;;6.82;;
31378;SDS011;61664;48.112;11.662;2023-04-02T19:51:59;6.57;;;6.05;;
31378;SDS011;61664;48.112;11.662;2023-04-02T19:54:26;7.25;;;6.65;;
31378;SDS011;61664;48.112;11.662;2023-04-02T19:56:53;10.88;;;8.88;;
31378;SDS011;61664;48.112;11.662;2023-04-02T19:59:20;8.73;;;7.07;;
31378;SDS011;61664;48.112;11.662;2023-04-02T20:01:48;7.82;;;6.90;;
31378;SDS011;61664;48.112;11.662;2023-04-02T20:04:15;8.05;;;7.25;;
31378;SDS011;61664;48.112;11.662;2023-04-02T20:06:42;6.25;;;5.70;;
31378;SDS011;61664;48.112;11.662;2023-04-02T20:09:09;6.80;;;6.07;;
31378;SDS011;61664;48.112;11.662;2023-04-02T20:11:36;5.75;;;5.25;;
31378;SDS011;61664;48.112;11.662;2023-04-02T20:14:04;5.90;;;5.40;;
31378;SDS011;61664;48.112;11.662;2023-04-02T20:16:31;6.07;;;5.57;;
31378;SDS011;61664;48.112;11.662;2023-04-02T20:18:59;5.15;;;4.70;;
31378;SDS011;61664;48.112;11.662;2023-04-02T20:21:26;5.13;;;4.75;;
31378;SDS011;61664;48.112;11.662;2023-04-02T20:23:54;5.18;;;4.80;;
31378;SDS011;61664;48.112;11.662;2023-04-02T20:26:21;4.90;;;4.50;;
31378;SDS011;61664;48.112;11.662;2023-04-02T20:28:48;4.60;;;4.20;;
31378;SDS011;61664;48.112;11.662;2023-04-02T20:31:16;4.60;;;4.30;;
31378;SDS011;61664;48.112;11.662;2023-04-02T20:33:44;4.82;;;4.43;;
31378;SDS011;61664;48.112;11.662;2023-04-02T20:36:15;5.28;;;4.68;;
31378;SDS011;61664;48.112;11.662;2023-04-02T20:38:42;5.05;;;4.65;;
31378;SDS011;61664;48.112;11.662;2023-04-02T20:41:11;6.10;;;5.43;;
31378;SDS011;61664;48.112;11.662;2023-04-02T20:43:40;5.60;;;5.10;;
31378;SDS011;61664;48.112;11.662;2023-04-02T20:46:07;5.53;;;4.97;;
31378;SDS011;61664;48.112;11.662;2023-04-02T20:48:38;4.87;;;4.43;;
31378;SDS011;61664;48.112;11.662;2023-04-02T20:51:06;5.30;;;4.80;;
31378;SDS011;61664;48.112;11.662;2023-04-02T20:53:35;5.60;;;5.05;;
31378;SDS011;61664;48.112;11.662;2023-04-02T20:56:04;5.28;;;4.88;;
31378;SDS011;61664;48.112;11.662;2023-04-02T20:58:35;4.60;;;4.22;;
31378;SDS011;61664;48.112;11.662;2023-04-02T21:01:04;5.05;;;4.55;;
31378;SDS011;61664;48.112;11.662;2023-04-02T21:03:37;5.00;;;4.60;;
31378;SDS011;61664;48.112;11.662;2023-04-02T21:06:05;6.82;;;5.60;;
31378;SDS011;61664;48.112;11.662;2023-04-02T21:08:47;6.35;;;5.75;;
31378;SDS011;61664;48.112;11.662;2023-04-02T21:11:15;7.95;;;6.35;;
31378;SDS011;61664;48.112;11.662;2023-04-02T21:13:43;6.97;;;6.28;;
31378;SDS011;61664;48.112;11.662;2023-04-02T21:16:15;7.60;;;6.82;;
31378;SDS011;61664;48.112;11.662;2023-04-02T21:18:46;8.52;;;6.53;;
31378;SDS011;61664;48.112;11.662;2023-04-02T21:21:15;9.98;;;6.65;;
31378;SDS011;61664;48.112;11.662;2023-04-02T21:23:44;7.47;;;6.65;;
31378;SDS011;61664;48.112;11.662;2023-04-02T21:26:15;8.15;;;6.50;;